createdAt,value
2023-05-05T00:02:19.207Z,101634.78
2023-05-05T00:07:21.059Z,101631.50
2023-05-05T00:12:22.865Z,101625.84
2023-05-05T00:17:24.749Z,101631.69
2023-05-05T00:22:26.513Z,101624.19
2023-05-05T00:27:28.255Z,101614.06
2023-05-05T00:32:30.040Z,101622.47
2023-05-05T00:37:31.860Z,101612.25
2023-05-05T00:42:47.221Z,101600.50
2023-05-05T00:47:54.209Z,101607.53
2023-05-05T00:53:06.102Z,101600.84
2023-05-05T00:58:08.894Z,101603.91
2023-05-05T01:03:12.854Z,101601.31
2023-05-05T01:08:43.610Z,101603.91
2023-05-05T01:14:19.381Z,101596.44
2023-05-05T01:20:20.756Z,101598.59
2023-05-05T01:26:16.836Z,101590.25
2023-05-05T01:32:01.297Z,101583.75
2023-05-05T01:37:22.254Z,101586.72
2023-05-05T01:42:26.700Z,101592.44
2023-05-05T01:47:31.398Z,101594.16
2023-05-05T01:52:37.480Z,101595.38
2023-05-05T01:57:42.651Z,101589.59
2023-05-05T02:02:49.266Z,101587.69
2023-05-05T02:07:58.832Z,101578.53
2023-05-05T02:13:02.870Z,101573.38
2023-05-05T02:18:07.581Z,101584.72
2023-05-05T02:23:09.763Z,101581.31
2023-05-05T02:28:23.080Z,101575.44
2023-05-05T02:33:29.059Z,101569.75
2023-05-05T02:38:32.615Z,101574.63
2023-05-05T02:43:38.751Z,101564.16
2023-05-05T02:48:40.621Z,101565.78
2023-05-05T02:53:42.639Z,101572.47
2023-05-05T02:59:03.424Z,101569.84
2023-05-05T03:04:30.700Z,101569.84
2023-05-05T03:09:45.787Z,101573.28
2023-05-05T03:14:54.128Z,101569.03
2023-05-05T03:19:57.111Z,101561.38
2023-05-05T03:24:58.856Z,101565.78
2023-05-05T03:30:00.750Z,101572.84
2023-05-05T03:35:02.574Z,101573.97
2023-05-05T03:40:05.001Z,101568.28
2023-05-05T03:45:07.914Z,101578.09
2023-05-05T03:50:10.191Z,101575.22
2023-05-05T03:55:12.060Z,101557.03
2023-05-05T04:00:15.174Z,101559.84
2023-05-05T04:05:17.424Z,101566.06
2023-05-05T04:10:19.178Z,101570.31
2023-05-05T04:15:21.260Z,101561.81
2023-05-05T04:20:23.143Z,101561.97
2023-05-05T04:25:25.002Z,101570.19
2023-05-05T04:30:26.791Z,101569.38
2023-05-05T04:35:28.566Z,101581.47
2023-05-05T04:40:30.460Z,101577.03
2023-05-05T04:45:32.236Z,101585.38
2023-05-05T04:50:34.084Z,101590.38
2023-05-05T04:55:35.850Z,101602.63
2023-05-05T05:00:37.965Z,101605.16
2023-05-05T05:05:39.723Z,101597.44
2023-05-05T05:10:42.170Z,101600.53
2023-05-05T05:15:44.962Z,101597.75
2023-05-05T05:20:46.719Z,101602.91
2023-05-05T05:25:48.656Z,101611.06
2023-05-05T05:30:51.939Z,101610.19
2023-05-05T05:35:53.770Z,101617.00
2023-05-05T05:40:55.625Z,101613.16
2023-05-05T05:45:57.440Z,101613.22
2023-05-05T05:50:59.365Z,101610.78
2023-05-05T05:56:01.448Z,101614.53
2023-05-05T06:01:04.924Z,101599.88
2023-05-05T06:06:07.513Z,101604.97
2023-05-05T06:11:09.310Z,101600.69
2023-05-05T06:16:11.274Z,101603.59
2023-05-05T06:21:13.452Z,101606.13
2023-05-05T06:26:16.023Z,101605.16
2023-05-05T06:31:18.317Z,101605.81
2023-05-05T06:36:20.198Z,101616.06
2023-05-05T06:41:22.015Z,101618.84
2023-05-05T06:46:23.805Z,101605.91
2023-05-05T06:51:26.412Z,101612.91
2023-05-05T06:56:28.328Z,101615.09
2023-05-05T07:01:30.116Z,101614.03
2023-05-05T07:06:32.141Z,101619.22
2023-05-05T07:11:33.903Z,101609.47
2023-05-05T07:16:37.200Z,101611.59
2023-05-05T07:21:39.689Z,101606.44
2023-05-05T07:26:41.685Z,101604.97
2023-05-05T07:31:43.561Z,101615.44
2023-05-05T07:36:45.455Z,101620.00
2023-05-05T07:41:47.217Z,101619.13
2023-05-05T07:46:49.265Z,101627.66
2023-05-05T07:51:51.247Z,101623.75
2023-05-05T07:56:53.336Z,101618.41
2023-05-05T08:01:55.174Z,101612.59
2023-05-05T08:06:56.978Z,101612.00
2023-05-05T08:11:58.752Z,101605.03
2023-05-05T08:17:00.632Z,101601.69
2023-05-05T08:22:02.529Z,101592.63
2023-05-05T08:27:04.410Z,101595.91
2023-05-05T08:32:06.239Z,101597.59
2023-05-05T08:37:08.024Z,101598.72
2023-05-05T08:42:09.838Z,101586.97
2023-05-05T08:47:15.591Z,101597.16
2023-05-05T08:52:24.190Z,101589.63
2023-05-05T08:57:41.257Z,101596.38
2023-05-05T09:02:44.714Z,101584.41
2023-05-05T09:07:47.224Z,101597.72
2023-05-05T09:12:51.125Z,101600.72
2023-05-05T09:17:56.417Z,101603.78
2023-05-05T09:22:58.270Z,101584.28
2023-05-05T09:28:14.053Z,101590.25
2023-05-05T09:33:31.144Z,101582.09
2023-05-05T09:38:34.740Z,101580.34
2023-05-05T09:43:51.942Z,101582.69
2023-05-05T09:48:53.957Z,101588.31
2023-05-05T09:53:55.752Z,101592.03
2023-05-05T09:59:09.794Z,101586.66
2023-05-05T10:04:30.275Z,101602.13
2023-05-05T10:09:32.500Z,101591.13
2023-05-05T10:14:35.761Z,101579.38
2023-05-05T10:19:40.730Z,101571.97
2023-05-05T10:25:02.728Z,101583.09
2023-05-05T10:30:08.043Z,101568.41
2023-05-05T10:35:16.304Z,101566.09
2023-05-05T10:40:18.325Z,101568.53
2023-05-05T10:45:20.285Z,101562.66
2023-05-05T10:50:38.845Z,101576.81
2023-05-05T10:56:27.384Z,101568.97
2023-05-05T11:01:35.323Z,101557.97
2023-05-05T11:06:37.386Z,101556.09
2023-05-05T11:12:08.254Z,101543.81
2023-05-05T11:17:46.587Z,101545.38
2023-05-05T11:23:03.853Z,101544.75
2023-05-05T11:28:13.436Z,101531.56
2023-05-05T11:33:31.535Z,101516.38
2023-05-05T11:38:36.314Z,101536.44
2023-05-05T11:43:39.839Z,101506.97
2023-05-05T11:55:41.915Z,101497.56
2023-05-05T12:00:43.705Z,101490.03
2023-05-05T12:05:47.610Z,101500.06
2023-05-05T12:10:49.435Z,101482.28
2023-05-05T12:15:51.265Z,101478.56
2023-05-05T12:20:53.295Z,101475.91
2023-05-05T12:25:55.148Z,101466.00
2023-05-05T12:30:58.925Z,101463.13
2023-05-05T12:36:00.964Z,101475.09
2023-05-05T12:41:03.204Z,101469.28
2023-05-05T12:46:12.508Z,101461.16
2023-05-05T12:51:25.569Z,101454.81
2023-05-05T12:56:42.885Z,101453.31
2023-05-05T13:01:53.472Z,101457.59
2023-05-05T13:07:11.616Z,101448.84
2023-05-05T13:12:14.451Z,101424.09
2023-05-05T13:17:16.252Z,101426.75
2023-05-05T13:22:18.043Z,101407.16
2023-05-05T13:27:20.716Z,101406.03
2023-05-05T13:32:22.982Z,101416.84
2023-05-05T13:37:24.888Z,101409.81
2023-05-05T13:42:26.687Z,101407.81
2023-05-05T13:47:29.262Z,101402.38
2023-05-05T13:52:33.169Z,101386.53
2023-05-05T13:57:35.428Z,101377.38
2023-05-05T14:02:37.226Z,101372.53
2023-05-05T14:07:39.098Z,101366.69
2023-05-05T14:12:40.991Z,101362.84
2023-05-05T14:17:42.817Z,101356.75
2023-05-05T14:22:44.697Z,101360.75
2023-05-05T14:27:46.799Z,101340.91
2023-05-05T14:32:48.716Z,101350.03
2023-05-05T14:37:50.581Z,101344.63
2023-05-05T14:42:52.491Z,101347.72
2023-05-05T14:47:54.357Z,101343.53
2023-05-05T14:52:56.286Z,101341.41
2023-05-05T14:57:58.176Z,101342.28
2023-05-05T15:03:00.086Z,101330.66
2023-05-05T15:08:02.130Z,101330.16
2023-05-05T15:13:03.973Z,101349.09
2023-05-05T15:18:06.362Z,101345.16
2023-05-05T15:23:08.699Z,101320.41
2023-05-05T15:28:10.594Z,101332.25
2023-05-05T15:33:12.338Z,101324.59
2023-05-05T15:38:14.174Z,101319.81
2023-05-05T15:43:15.940Z,101318.69
2023-05-05T15:48:18.410Z,101316.44
2023-05-05T15:53:20.588Z,101320.38
2023-05-05T15:58:22.490Z,101313.59
2023-05-05T16:03:24.482Z,101315.28
2023-05-05T16:08:26.375Z,101308.72
2023-05-05T16:13:28.349Z,101308.41
2023-05-05T16:18:30.076Z,101309.66
2023-05-05T16:23:31.935Z,101305.28
2023-05-05T16:28:34.258Z,101311.09
2023-05-05T16:33:40.777Z,101308.81
2023-05-05T16:38:43.705Z,101309.84
2023-05-05T16:43:46.234Z,101315.75
2023-05-05T16:48:48.029Z,101304.13
2023-05-05T16:53:50.104Z,101298.97
2023-05-05T16:58:52.446Z,101299.78
2023-05-05T17:03:55.463Z,101294.50
2023-05-05T17:08:57.455Z,101291.63
2023-05-05T17:13:59.301Z,101298.50
2023-05-05T17:19:01.130Z,101278.50
2023-05-05T17:24:03.388Z,101274.88
2023-05-05T17:29:05.239Z,101287.56
2023-05-05T17:34:07.301Z,101284.91
2023-05-05T17:39:11.258Z,101287.53
2023-05-05T17:44:13.185Z,101279.81
2023-05-05T17:49:15.011Z,101289.09
2023-05-05T17:54:17.082Z,101273.81
2023-05-05T17:59:18.920Z,101275.16
2023-05-05T18:04:20.779Z,101275.34
2023-05-05T18:09:23.360Z,101287.91
2023-05-05T18:14:25.181Z,101291.22
2023-05-05T18:19:26.980Z,101302.94
2023-05-05T18:24:29.388Z,101298.16
2023-05-05T18:29:31.188Z,101297.28
2023-05-05T18:34:32.984Z,101320.34
2023-05-05T18:39:34.798Z,101333.94
2023-05-05T18:44:36.547Z,101324.88
2023-05-05T18:49:38.502Z,101338.31
2023-05-05T18:54:40.895Z,101344.09
2023-05-05T18:59:42.669Z,101339.91
2023-05-05T19:04:44.841Z,101336.94
2023-05-05T19:09:46.891Z,101346.69
2023-05-05T19:14:48.734Z,101337.28
2023-05-05T19:19:50.656Z,101335.75
2023-05-05T19:24:52.383Z,101352.88
2023-05-05T19:29:54.149Z,101346.84
2023-05-05T19:34:56.416Z,101349.94
2023-05-05T19:39:58.164Z,101346.72
2023-05-05T19:45:01.188Z,101349.75
2023-05-05T19:50:03.097Z,101358.47
2023-05-05T19:55:05.667Z,101375.75
2023-05-05T20:00:10.466Z,101379.34
2023-05-05T20:05:17.123Z,101364.09
2023-05-05T20:10:19.137Z,101354.56
2023-05-05T20:15:22.188Z,101351.13
2023-05-05T20:20:23.986Z,101363.03
2023-05-05T20:25:25.773Z,101351.13
2023-05-05T20:30:27.563Z,101358.00
2023-05-05T20:35:29.452Z,101356.38
2023-05-05T20:40:33.210Z,101357.19
2023-05-05T20:45:35.269Z,101355.31
2023-05-05T20:50:41.878Z,101367.44
2023-05-05T20:55:43.627Z,101359.13
2023-05-05T21:00:47.353Z,101359.53
2023-05-05T21:05:49.245Z,101363.34
2023-05-05T21:10:50.976Z,101365.59
2023-05-05T21:15:52.765Z,101358.09
2023-05-05T21:20:54.786Z,101347.19
2023-05-05T21:25:56.531Z,101353.03
2023-05-05T21:31:19.732Z,101360.31
2023-05-05T21:36:21.189Z,101354.03
2023-05-05T21:41:23.741Z,101358.47
2023-05-05T21:46:25.787Z,101344.91
2023-05-05T21:51:27.658Z,101345.13
2023-05-05T21:56:29.432Z,101351.78
2023-05-05T22:01:32.256Z,101360.22
2023-05-05T22:06:34.268Z,101357.19
2023-05-05T22:11:36.170Z,101361.81
2023-05-05T22:16:38.069Z,101367.03
2023-05-05T22:21:39.939Z,101368.97
2023-05-05T22:26:43.242Z,101390.16
2023-05-05T22:31:45.420Z,101385.16
2023-05-05T22:36:48.257Z,101377.47
2023-05-05T22:41:50.048Z,101382.16
2023-05-05T22:46:51.887Z,101372.81
2023-05-05T22:51:53.764Z,101373.81
2023-05-05T22:56:55.542Z,101371.75
2023-05-05T23:01:57.399Z,101369.06
2023-05-05T23:06:59.264Z,101358.06
2023-05-05T23:12:01.812Z,101352.31
2023-05-05T23:17:03.723Z,101362.56
2023-05-05T23:22:06.087Z,101360.03
2023-05-05T23:27:07.888Z,101354.44
2023-05-05T23:32:09.758Z,101357.47
2023-05-05T23:37:14.450Z,101335.88
2023-05-05T23:42:16.231Z,101345.41
2023-05-05T23:47:18.012Z,101346.56
2023-05-05T23:52:19.786Z,101346.97
2023-05-05T23:57:22.120Z,101344.16
